Time;durP1;ratioP1;P1;durP2;ratioP2;P2;SDS_P1;SDS_P2;PMS_P1;PMS_P2;Temp;Humidity;BMP_temperature;BMP_pressure;BME280_temperature;BME280_humidity;BME280_pressure;Samples;Min_cycle;Max_cycle;Signal;HPM_P1;HPM_P2
2021/03/09 00:01:48;;;;;;;4.47;3.90;;;4.30;89.40;;;;;;4948405;28;20777;-64
2021/03/09 00:04:24;;;;;;;4.50;3.60;;;4.30;89.60;;;;;;4951403;28;20641;-64
2021/03/09 00:07:03;;;;;;;5.37;3.60;;;4.30;88.60;;;;;;4957957;28;20700;-64
2021/03/09 00:09:31;;;;;;;4.47;3.77;;;4.30;88.30;;;;;;4959826;28;20716;-63
2021/03/09 00:12:09;;;;;;;4.13;3.47;;;4.20;89.30;;;;;;4964844;28;20745;-64
2021/03/09 00:14:42;;;;;;;5.83;3.50;;;4.20;88.30;;;;;;4958468;28;20773;-63
2021/03/09 00:17:13;;;;;;;4.97;3.50;;;4.20;88.60;;;;;;4955013;28;20674;-63
2021/03/09 00:19:56;;;;;;;4.47;3.30;;;4.20;88.70;;;;;;4954970;28;21277;-63
2021/03/09 00:22:33;;;;;;;4.60;3.80;;;4.20;88.60;;;;;;4942232;28;20688;-64
2021/03/09 00:25:15;;;;;;;4.00;3.40;;;4.20;89.10;;;;;;4967342;28;20622;-64
2021/03/09 00:27:45;;;;;;;4.60;3.47;;;4.10;89.20;;;;;;4961049;28;20611;-63
2021/03/09 00:30:14;;;;;;;4.10;3.43;;;4.20;89.30;;;;;;4958592;28;20699;-63
2021/03/09 00:32:50;;;;;;;4.10;3.70;;;4.20;89.80;;;;;;4946447;28;20626;-63
2021/03/09 00:35:31;;;;;;;4.77;3.53;;;4.20;89.60;;;;;;4964861;28;21148;-63
2021/03/09 00:38:20;;;;;;;5.50;3.70;;;4.10;89.10;;;;;;4940022;28;20640;-63
2021/03/09 00:40:50;;;;;;;4.90;3.20;;;4.10;89.60;;;;;;4951321;28;21332;-64
2021/03/09 00:43:28;;;;;;;4.30;3.03;;;4.10;89.50;;;;;;4942415;29;20627;-63
2021/03/09 00:46:02;;;;;;;3.53;3.23;;;4.10;89.30;;;;;;4943295;29;20646;-63
2021/03/09 00:48:55;;;;;;;4.53;3.40;;;4.10;88.40;;;;;;4936892;28;20627;-63
2021/03/09 00:51:26;;;;;;;3.47;3.17;;;4.10;89.00;;;;;;4937634;28;20682;-63
2021/03/09 00:54:02;;;;;;;4.53;3.33;;;4.10;89.60;;;;;;4945580;28;20978;-63
2021/03/09 00:56:35;;;;;;;3.90;3.37;;;4.10;88.70;;;;;;4940729;28;21181;-64
2021/03/09 00:59:03;;;;;;;4.63;3.57;;;4.10;88.90;;;;;;4943410;28;21007;-64
2021/03/09 01:01:29;;;;;;;3.70;3.27;;;4.10;89.10;;;;;;4938957;28;20651;-63
2021/03/09 01:04:12;;;;;;;4.20;3.40;;;4.10;89.40;;;;;;4955163;28;20623;-64
2021/03/09 01:06:43;;;;;;;5.00;2.97;;;4.10;89.70;;;;;;4943685;28;20199;-64
2021/03/09 01:09:14;;;;;;;3.83;3.10;;;4.10;88.70;;;;;;4949582;28;20655;-64
2021/03/09 01:11:42;;;;;;;3.47;3.17;;;4.10;88.40;;;;;;4938186;28;20643;-64
2021/03/09 01:14:08;;;;;;;3.33;2.70;;;4.00;87.70;;;;;;4946430;29;21002;-63
2021/03/09 01:16:39;;;;;;;3.50;2.90;;;4.00;88.10;;;;;;4946643;28;20710;-64
2021/03/09 01:19:12;;;;;;;3.20;2.70;;;4.00;87.20;;;;;;4935163;28;20426;-64
2021/03/09 01:21:42;;;;;;;3.60;3.03;;;4.00;87.10;;;;;;4964327;28;20649;-64
2021/03/09 01:24:13;;;;;;;5.03;3.17;;;4.00;87.40;;;;;;4961695;28;20690;-64
2021/03/09 01:26:49;;;;;;;3.83;3.40;;;4.00;88.10;;;;;;4956905;28;20931;-63
2021/03/09 01:29:15;;;;;;;2.90;2.60;;;4.00;88.10;;;;;;4965614;28;20971;-63
2021/03/09 01:31:53;;;;;;;3.33;3.03;;;4.00;87.50;;;;;;4963240;28;20653;-64
2021/03/09 01:34:26;;;;;;;3.03;2.83;;;4.00;87.90;;;;;;4960445;28;20458;-64
2021/03/09 01:36:57;;;;;;;3.83;2.70;;;4.00;88.50;;;;;;4954876;28;21001;-63
2021/03/09 01:39:27;;;;;;;4.17;3.40;;;4.00;88.60;;;;;;4965348;28;20610;-63
2021/03/09 01:42:18;;;;;;;4.80;3.20;;;4.00;88.10;;;;;;4958722;28;20631;-63
2021/03/09 01:44:46;;;;;;;4.20;3.50;;;4.00;87.90;;;;;;4962423;28;20620;-64
2021/03/09 01:47:11;;;;;;;3.30;2.67;;;4.00;88.00;;;;;;4962541;28;20611;-63
2021/03/09 01:49:41;;;;;;;4.63;3.23;;;4.00;88.10;;;;;;4960808;28;20648;-63
2021/03/09 01:52:17;;;;;;;3.40;3.10;;;4.00;88.10;;;;;;4957729;28;20194;-63
2021/03/09 01:54:46;;;;;;;3.40;3.10;;;4.10;87.50;;;;;;4955904;28;20641;-63
2021/03/09 01:57:14;;;;;;;3.93;3.10;;;4.00;87.40;;;;;;4942429;28;20630;-63
2021/03/09 01:59:53;;;;;;;3.47;3.13;;;4.00;86.70;;;;;;4934697;28;21347;-64
2021/03/09 02:02:24;;;;;;;5.10;3.10;;;4.00;86.70;;;;;;4941482;28;20984;-64
2021/03/09 02:04:55;;;;;;;5.13;3.23;;;4.00;86.20;;;;;;4960008;28;20765;-63
2021/03/09 02:07:30;;;;;;;5.20;3.00;;;4.00;86.80;;;;;;4943435;28;20673;-63
2021/03/09 02:10:09;;;;;;;;;;;;;;;;;;;;;
2021/03/09 02:13:08;;;;;;;4.07;3.20;;;3.90;86.30;;;;;;4957322;28;20980;-64
2021/03/09 02:16:15;;;;;;;4.97;3.00;;;4.00;86.10;;;;;;4963602;28;20676;-63
2021/03/09 02:19:12;;;;;;;;;;;;;;;;;;;;;
2021/03/09 02:22:00;;;;;;;3.00;2.20;;;4.00;86.90;;;;;;4959661;28;21326;-63
2021/03/09 02:25:03;;;;;;;3.33;3.03;;;4.00;86.40;;;;;;4962004;28;20705;-63
2021/03/09 02:27:58;;;;;;;2.40;2.20;;;4.00;86.40;;;;;;4963774;28;20666;-63
2021/03/09 02:30:29;;;;;;;3.10;2.50;;;4.00;86.10;;;;;;4956271;28;20642;-63
2021/03/09 02:33:22;;;;;;;3.23;2.50;;;4.00;86.20;;;;;;4958874;28;20622;-63
2021/03/09 02:36:00;;;;;;;3.23;2.30;;;4.00;86.10;;;;;;4958246;28;21351;-63
2021/03/09 02:38:33;;;;;;;2.90;2.60;;;4.00;86.40;;;;;;4959268;28;20730;-64
2021/03/09 02:41:02;;;;;;;3.37;2.37;;;4.00;86.30;;;;;;4962244;28;20650;-63
2021/03/09 02:43:46;;;;;;;2.70;2.40;;;4.00;86.20;;;;;;4961182;28;20631;-63
2021/03/09 02:46:21;;;;;;;3.20;2.30;;;4.00;85.60;;;;;;4960798;28;20614;-63
2021/03/09 02:48:54;;;;;;;2.60;2.17;;;4.00;84.30;;;;;;4951395;28;20680;-63
2021/03/09 02:51:27;;;;;;;3.00;2.23;;;4.00;84.00;;;;;;4961025;28;20753;-63
2021/03/09 02:54:12;;;;;;;2.80;2.13;;;4.10;83.20;;;;;;4967340;28;20658;-63
2021/03/09 02:56:41;;;;;;;2.37;2.13;;;4.00;83.60;;;;;;4962436;28;20637;-63
2021/03/09 02:59:23;;;;;;;;;;;;;;;;;;;;;
2021/03/09 03:01:51;;;;;;;3.10;2.57;;;4.00;84.40;;;;;;4962067;28;20650;-63
2021/03/09 03:04:27;;;;;;;2.37;2.17;;;4.00;85.40;;;;;;4951313;28;20614;-63
2021/03/09 03:07:04;;;;;;;2.80;2.30;;;3.90;84.90;;;;;;4960987;28;20693;-63
2021/03/09 03:09:44;;;;;;;4.40;2.30;;;3.90;85.10;;;;;;4962511;28;20650;-64
2021/03/09 03:12:14;;;;;;;3.30;2.50;;;3.90;84.40;;;;;;4965103;28;20704;-63
2021/03/09 03:15:06;;;;;;;4.43;2.60;;;3.90;85.40;;;;;;4964017;28;20658;-63
2021/03/09 03:17:39;;;;;;;2.73;2.20;;;3.90;85.40;;;;;;4958687;28;21336;-63
2021/03/09 03:20:15;;;;;;;3.27;2.50;;;3.90;85.10;;;;;;4956212;28;20652;-63
2021/03/09 03:22:44;;;;;;;2.60;2.40;;;3.90;85.40;;;;;;4953795;28;20579;-64
2021/03/09 03:25:20;;;;;;;3.30;2.43;;;3.90;85.80;;;;;;4966935;28;21081;-63
2021/03/09 03:27:47;;;;;;;2.63;2.40;;;3.90;86.80;;;;;;4971966;28;20708;-63
2021/03/09 03:30:16;;;;;;;2.73;2.40;;;3.90;86.50;;;;;;4961936;28;21248;-63
2021/03/09 03:32:49;;;;;;;3.60;2.60;;;3.80;86.10;;;;;;4944421;28;20606;-63
2021/03/09 03:35:18;;;;;;;4.20;2.60;;;3.90;87.00;;;;;;4960579;28;20657;-63
2021/03/09 03:37:49;;;;;;;4.10;2.50;;;4.00;86.30;;;;;;4963238;28;21152;-63
2021/03/09 03:40:27;;;;;;;3.70;2.40;;;3.90;86.60;;;;;;4955719;28;20650;-63
2021/03/09 03:43:02;;;;;;;5.10;3.07;;;3.90;86.20;;;;;;4965317;28;20625;-64
2021/03/09 03:45:30;;;;;;;4.43;3.00;;;3.80;86.90;;;;;;4944035;28;20610;-63
2021/03/09 03:48:06;;;;;;;2.67;2.23;;;3.80;87.40;;;;;;4947127;28;20996;-64
2021/03/09 03:50:42;;;;;;;4.10;2.60;;;3.80;87.80;;;;;;4941618;28;20742;-63
2021/03/09 03:53:18;;;;;;;3.90;2.97;;;3.90;87.80;;;;;;4938372;28;21264;-63
2021/03/09 03:56:37;;;;;;;3.70;2.70;;;3.90;88.20;;;;;;4944443;28;20740;-63
2021/03/09 03:59:19;;;;;;;4.20;2.37;;;3.80;88.40;;;;;;4905964;29;20681;-63
2021/03/09 04:01:45;;;;;;;3.70;2.87;;;3.80;88.90;;;;;;4940871;28;20637;-63
2021/03/09 04:04:15;;;;;;;3.50;2.70;;;3.80;89.30;;;;;;4948425;28;20607;-63
2021/03/09 04:06:53;;;;;;;2.73;2.43;;;3.80;89.80;;;;;;4923634;28;21296;-63
2021/03/09 04:09:19;;;;;;;3.13;2.83;;;3.80;89.80;;;;;;4940784;28;20615;-63
2021/03/09 04:11:47;;;;;;;5.00;2.90;;;3.70;90.20;;;;;;4962419;28;20662;-63
2021/03/09 04:14:14;;;;;;;3.00;2.80;;;3.70;90.40;;;;;;4967103;28;20638;-63
2021/03/09 04:16:55;;;;;;;4.27;3.10;;;3.70;90.60;;;;;;4964846;28;20614;-63
2021/03/09 04:19:27;;;;;;;3.10;2.60;;;3.70;90.50;;;;;;4958036;28;20621;-63
2021/03/09 04:21:55;;;;;;;2.73;2.50;;;3.70;91.00;;;;;;4958802;28;20762;-63
2021/03/09 04:24:33;;;;;;;4.43;2.70;;;3.80;90.80;;;;;;4964115;28;20717;-64
2021/03/09 04:27:20;;;;;;;3.50;2.90;;;3.70;91.10;;;;;;4951463;28;20634;-63
2021/03/09 04:29:56;;;;;;;3.90;3.00;;;3.70;90.80;;;;;;4956433;28;20743;-63
2021/03/09 04:32:28;;;;;;;5.50;2.73;;;3.70;91.30;;;;;;4961939;28;20617;-63
2021/03/09 04:35:20;;;;;;;4.40;3.20;;;3.70;91.50;;;;;;4944004;28;20684;-63
2021/03/09 04:37:53;;;;;;;5.83;2.80;;;3.70;91.40;;;;;;4961455;28;20684;-63
2021/03/09 04:40:23;;;;;;;4.60;2.80;;;3.80;91.80;;;;;;4960211;28;20646;-63
2021/03/09 04:42:52;;;;;;;4.40;3.00;;;3.80;92.10;;;;;;4963247;28;20640;-64
2021/03/09 04:45:18;;;;;;;3.90;2.90;;;3.70;93.00;;;;;;4962742;28;20606;-64
2021/03/09 04:47:47;;;;;;;5.37;3.00;;;3.70;93.40;;;;;;4962433;28;20644;-63
2021/03/09 04:50:16;;;;;;;4.50;2.80;;;3.70;94.60;;;;;;4937583;28;20727;-64
2021/03/09 04:53:05;;;;;;;;;;;;;;;;;;;;;
2021/03/09 04:55:45;;;;;;;3.47;3.17;;;3.70;95.70;;;;;;4938896;28;20623;-63
2021/03/09 04:58:22;;;;;;;3.10;2.80;;;3.70;97.00;;;;;;4945364;28;20609;-63
2021/03/09 05:00:48;;;;;;;3.93;2.83;;;3.60;98.20;;;;;;4943418;28;20643;-63
2021/03/09 05:03:18;;;;;;;4.83;3.23;;;3.60;99.30;;;;;;4943519;28;20679;-63
2021/03/09 05:05:55;;;;;;;4.20;2.60;;;3.50;99.90;;;;;;4947329;28;20195;-63
2021/03/09 05:08:23;;;;;;;4.00;2.83;;;3.50;99.90;;;;;;4918686;29;20778;-63
2021/03/09 05:10:53;;;;;;;3.63;3.03;;;3.50;99.90;;;;;;4945419;28;20658;-63
2021/03/09 05:13:21;;;;;;;4.10;2.90;;;3.40;99.90;;;;;;4944571;28;21208;-63
2021/03/09 05:15:49;;;;;;;4.40;3.20;;;3.40;99.90;;;;;;4934751;28;21029;-63
2021/03/09 05:18:18;;;;;;;4.27;3.20;;;3.40;99.90;;;;;;4942099;29;20685;-63
2021/03/09 05:20:56;;;;;;;3.60;3.00;;;3.30;99.90;;;;;;4942608;28;21019;-63
2021/03/09 05:23:30;;;;;;;3.20;2.90;;;3.30;99.90;;;;;;4949094;29;21001;-63
2021/03/09 05:25:58;;;;;;;5.07;3.40;;;3.30;99.90;;;;;;4942082;28;21181;-64
2021/03/09 05:28:28;;;;;;;3.67;3.00;;;3.30;99.90;;;;;;4944257;29;21228;-64
2021/03/09 05:31:03;;;;;;;4.43;3.30;;;3.20;99.90;;;;;;4936454;28;20643;-63
2021/03/09 05:33:34;;;;;;;6.00;2.83;;;3.20;99.90;;;;;;4921838;29;20654;-63
2021/03/09 05:36:20;;;;;;;3.10;2.80;;;3.20;99.90;;;;;;4943149;28;20642;-63
2021/03/09 05:38:50;;;;;;;3.43;2.80;;;3.20;99.90;;;;;;4942699;28;20622;-63
2021/03/09 05:41:16;;;;;;;4.33;3.23;;;3.20;99.90;;;;;;4948961;28;20732;-63
2021/03/09 05:43:48;;;;;;;5.50;3.23;;;3.20;99.90;;;;;;4960440;28;20653;-64
2021/03/09 05:46:23;;;;;;;3.57;3.27;;;3.20;99.90;;;;;;4967845;28;20568;-63
2021/03/09 05:49:12;;;;;;;3.60;3.20;;;3.10;99.90;;;;;;4962235;28;20601;-63
2021/03/09 05:51:42;;;;;;;3.90;2.87;;;3.20;99.90;;;;;;4958825;28;20650;-63
2021/03/09 05:54:15;;;;;;;4.27;3.50;;;3.10;99.90;;;;;;4963320;28;20654;-63
2021/03/09 05:56:44;;;;;;;3.60;3.30;;;3.10;99.90;;;;;;4965801;28;20649;-63
2021/03/09 05:59:24;;;;;;;3.70;3.40;;;3.10;99.90;;;;;;4948133;28;20661;-63
2021/03/09 06:01:54;;;;;;;3.87;3.23;;;3.00;99.90;;;;;;4961138;28;20657;-63
2021/03/09 06:04:50;;;;;;;;;;;;;;;;;;;;;
2021/03/09 06:07:33;;;;;;;3.80;3.20;;;2.90;99.90;;;;;;4955039;28;20625;-63
2021/03/09 06:10:22;;;;;;;5.83;3.40;;;2.90;99.90;;;;;;4959458;28;20664;-63
2021/03/09 06:12:54;;;;;;;5.77;3.70;;;2.90;99.90;;;;;;4954696;28;21305;-64
2021/03/09 06:15:31;;;;;;;;;;;;;;;;;;;;;
2021/03/09 06:18:01;;;;;;;4.77;3.40;;;2.80;99.90;;;;;;4962921;28;20828;-64
2021/03/09 06:20:36;;;;;;;3.87;3.47;;;2.80;99.90;;;;;;4945060;28;20657;-63
2021/03/09 06:23:17;;;;;;;3.80;3.10;;;2.80;99.90;;;;;;4957492;28;20604;-63
2021/03/09 06:25:42;;;;;;;4.00;3.33;;;2.70;99.90;;;;;;4960253;28;20613;-63
2021/03/09 06:28:11;;;;;;;3.70;3.40;;;2.70;99.90;;;;;;4951350;28;20622;-63
2021/03/09 06:30:38;;;;;;;4.53;3.30;;;2.70;99.90;;;;;;4967746;28;20599;-63
2021/03/09 06:33:05;;;;;;;3.80;3.37;;;2.80;99.90;;;;;;4955359;28;20745;-64
2021/03/09 06:35:39;;;;;;;6.53;3.40;;;2.80;99.90;;;;;;4949253;28;21006;-63
2021/03/09 06:38:19;;;;;;;4.10;3.70;;;2.80;99.90;;;;;;4961613;28;20606;-63
2021/03/09 06:41:19;;;;;;;6.20;3.83;;;2.80;99.90;;;;;;4963382;28;20638;-65
2021/03/09 06:44:03;;;;;;;4.03;3.47;;;2.80;99.90;;;;;;4948761;28;20630;-63
2021/03/09 06:46:49;;;;;;;4.33;3.93;;;2.70;99.90;;;;;;4961199;28;20614;-64
2021/03/09 06:49:23;;;;;;;6.27;4.20;;;2.70;99.90;;;;;;4959874;28;20624;-64
2021/03/09 06:51:51;;;;;;;7.07;4.47;;;2.60;99.90;;;;;;4961089;28;20704;-63
2021/03/09 06:54:17;;;;;;;4.80;3.77;;;2.60;99.90;;;;;;4960446;28;20831;-64
2021/03/09 06:56:44;;;;;;;5.33;3.90;;;2.60;99.90;;;;;;4954045;28;21188;-64
2021/03/09 06:59:27;;;;;;;5.27;4.20;;;2.60;99.90;;;;;;4948734;28;21405;-64
2021/03/09 07:02:08;;;;;;;5.73;4.07;;;2.60;99.90;;;;;;4940489;28;20645;-64
2021/03/09 07:05:02;;;;;;;4.10;3.70;;;2.60;99.90;;;;;;4927599;28;20652;-64
2021/03/09 07:07:30;;;;;;;9.00;4.20;;;2.60;99.90;;;;;;4929734;28;20633;-64
2021/03/09 07:10:03;;;;;;;5.23;3.83;;;2.60;99.90;;;;;;4958103;28;21385;-64
2021/03/09 07:12:29;;;;;;;6.43;4.03;;;2.60;99.90;;;;;;4963257;28;20693;-62
2021/03/09 07:14:56;;;;;;;4.70;3.50;;;2.70;99.90;;;;;;4956333;28;21026;-64
2021/03/09 07:17:25;;;;;;;4.80;3.90;;;2.70;99.90;;;;;;4953595;28;21541;-64
2021/03/09 07:19:52;;;;;;;5.30;4.00;;;2.80;99.90;;;;;;4937149;28;20656;-64
2021/03/09 07:22:19;;;;;;;7.57;3.97;;;2.80;99.90;;;;;;4936772;28;20651;-65
2021/03/09 07:25:03;;;;;;;5.13;3.73;;;2.80;99.90;;;;;;4956232;28;20617;-64
2021/03/09 07:27:51;;;;;;;5.93;3.93;;;2.70;99.90;;;;;;4956286;28;20594;-64
2021/03/09 07:30:18;;;;;;;4.63;4.23;;;2.70;99.90;;;;;;4968428;28;20742;-63
2021/03/09 07:32:55;;;;;;;4.90;4.00;;;2.60;99.90;;;;;;4966957;28;21267;-64
2021/03/09 07:35:27;;;;;;;5.10;3.97;;;2.70;99.90;;;;;;4962852;28;20640;-64
2021/03/09 07:37:53;;;;;;;5.00;4.03;;;2.70;99.90;;;;;;4957403;28;21181;-63
2021/03/09 07:40:22;;;;;;;5.90;4.10;;;2.60;99.90;;;;;;4963321;28;20637;-63
2021/03/09 07:42:50;;;;;;;5.33;3.87;;;2.70;99.90;;;;;;4952372;28;20617;-64
2021/03/09 07:45:18;;;;;;;6.07;4.63;;;2.70;99.90;;;;;;4966888;28;20626;-64
2021/03/09 07:47:55;;;;;;;5.10;4.30;;;2.70;99.90;;;;;;4952010;28;20636;-64
2021/03/09 07:50:22;;;;;;;5.17;4.20;;;2.70;99.90;;;;;;4949742;28;21346;-64
2021/03/09 07:53:11;;;;;;;4.83;4.10;;;2.70;99.90;;;;;;4962530;28;21244;-64
2021/03/09 07:55:39;;;;;;;6.00;4.00;;;2.70;99.90;;;;;;4966713;28;20639;-64
2021/03/09 07:58:20;;;;;;;5.70;4.70;;;2.80;99.90;;;;;;4965288;28;20626;-63
2021/03/09 08:00:56;;;;;;;5.80;4.80;;;2.70;99.90;;;;;;4958479;28;20638;-64
2021/03/09 08:03:24;;;;;;;7.20;4.93;;;2.70;99.90;;;;;;4970322;28;20602;-64
2021/03/09 08:06:11;;;;;;;5.43;4.80;;;2.80;99.90;;;;;;4952147;28;20606;-64
2021/03/09 08:08:49;;;;;;;7.13;5.10;;;2.80;99.90;;;;;;4947123;28;20627;-64
2021/03/09 08:11:24;;;;;;;5.17;4.63;;;2.80;99.90;;;;;;4960929;28;20642;-64
2021/03/09 08:13:49;;;;;;;5.63;4.63;;;2.80;99.90;;;;;;4966091;28;20653;-64
2021/03/09 08:16:24;;;;;;;5.13;4.63;;;2.90;99.90;;;;;;4964399;28;20670;-64
2021/03/09 08:18:51;;;;;;;5.97;5.27;;;2.90;99.90;;;;;;4961040;28;20210;-64
2021/03/09 08:21:17;;;;;;;5.50;4.90;;;2.90;99.90;;;;;;4958332;28;20649;-64
2021/03/09 08:23:45;;;;;;;7.43;5.43;;;2.90;99.90;;;;;;4961717;28;20628;-64
2021/03/09 08:26:13;;;;;;;8.60;5.23;;;2.90;99.90;;;;;;4963136;28;21143;-64
2021/03/09 08:28:40;;;;;;;5.80;5.20;;;2.90;99.90;;;;;;4966438;28;20776;-64
2021/03/09 08:31:09;;;;;;;6.37;5.47;;;2.90;99.90;;;;;;4967249;28;20644;-64
2021/03/09 08:33:38;;;;;;;7.60;5.37;;;2.90;99.90;;;;;;4966490;28;20611;-63
2021/03/09 08:36:23;;;;;;;5.87;5.27;;;3.00;99.90;;;;;;4962355;28;20621;-64
2021/03/09 08:39:00;;;;;;;7.47;5.27;;;3.00;99.90;;;;;;4961661;28;20719;-64
2021/03/09 08:41:27;;;;;;;8.00;5.80;;;3.10;99.90;;;;;;4965666;28;20642;-64
2021/03/09 08:44:19;;;;;;;6.87;5.83;;;3.00;99.90;;;;;;4967037;28;20665;-64
2021/03/09 08:46:53;;;;;;;8.43;5.90;;;3.10;99.90;;;;;;4958312;28;20980;-64
2021/03/09 08:49:37;;;;;;;7.70;6.23;;;3.10;99.90;;;;;;4966274;28;21070;-64
2021/03/09 08:52:11;;;;;;;9.27;5.47;;;3.10;99.90;;;;;;4948379;28;20659;-64
2021/03/09 08:54:39;;;;;;;6.77;5.53;;;3.10;99.90;;;;;;4969371;28;21058;-64
2021/03/09 08:57:23;;;;;;;6.30;5.67;;;3.20;99.90;;;;;;4965326;28;20610;-64
2021/03/09 08:59:53;;;;;;;8.70;5.77;;;3.20;99.90;;;;;;4967775;28;20641;-63
2021/03/09 09:02:24;;;;;;;8.50;6.20;;;3.20;99.90;;;;;;4970547;28;20641;-64
2021/03/09 09:05:06;;;;;;;8.80;6.17;;;3.20;99.90;;;;;;4954412;28;20991;-64
2021/03/09 09:07:36;;;;;;;9.03;6.37;;;3.20;99.90;;;;;;4963419;28;20611;-64
2021/03/09 09:10:12;;;;;;;9.97;6.50;;;3.20;99.90;;;;;;4946300;28;20684;-63
2021/03/09 09:12:49;;;;;;;10.40;5.97;;;3.20;99.90;;;;;;4959949;28;20602;-64
2021/03/09 09:15:16;;;;;;;6.43;5.83;;;3.30;99.90;;;;;;4946553;28;20678;-63
2021/03/09 09:17:48;;;;;;;8.03;6.20;;;3.30;99.90;;;;;;4963185;28;20718;-64
2021/03/09 09:20:20;;;;;;;7.13;5.67;;;3.30;99.90;;;;;;4958306;28;20650;-64
2021/03/09 09:22:46;;;;;;;8.73;6.70;;;3.30;99.90;;;;;;4971031;28;20944;-64
2021/03/09 09:25:14;;;;;;;9.07;7.20;;;3.30;99.90;;;;;;4947721;28;20665;-64
2021/03/09 09:27:44;;;;;;;7.77;6.70;;;3.30;99.90;;;;;;4966327;28;21192;-64
2021/03/09 09:30:16;;;;;;;7.80;6.57;;;3.30;99.90;;;;;;4966588;28;21075;-64
2021/03/09 09:32:53;;;;;;;8.73;7.03;;;3.40;99.90;;;;;;4961870;28;20648;-64
2021/03/09 09:35:24;;;;;;;8.20;7.00;;;3.40;99.90;;;;;;4965768;28;20685;-64
2021/03/09 09:37:56;;;;;;;9.40;7.90;;;3.40;99.90;;;;;;4960216;28;20738;-64
2021/03/09 09:40:30;;;;;;;10.73;6.90;;;3.40;99.90;;;;;;4958538;28;20676;-64
2021/03/09 09:42:58;;;;;;;11.80;7.00;;;3.50;99.90;;;;;;4964948;28;20609;-64
2021/03/09 09:45:25;;;;;;;10.70;7.70;;;3.40;99.90;;;;;;4960972;28;20628;-64
2021/03/09 09:47:52;;;;;;;9.93;7.13;;;3.50;99.90;;;;;;4950071;28;20977;-64
2021/03/09 09:50:19;;;;;;;8.67;7.47;;;3.40;99.90;;;;;;4965872;28;20642;-64
2021/03/09 09:52:59;;;;;;;11.10;7.27;;;3.50;99.90;;;;;;4946558;28;20672;-64
2021/03/09 09:55:30;;;;;;;10.13;7.90;;;3.50;99.90;;;;;;4967186;28;21054;-64
2021/03/09 09:57:57;;;;;;;9.40;7.90;;;3.50;99.90;;;;;;4965835;28;20610;-64
2021/03/09 10:00:25;;;;;;;8.87;7.43;;;3.50;99.90;;;;;;4941214;28;20634;-64
2021/03/09 10:03:14;;;;;;;14.20;8.10;;;3.70;99.90;;;;;;4957594;28;20615;-64
2021/03/09 10:05:41;;;;;;;10.23;7.57;;;3.60;99.90;;;;;;4957398;28;20626;-64
2021/03/09 10:08:08;;;;;;;9.57;8.13;;;3.60;99.90;;;;;;4946631;28;20668;-64
2021/03/09 10:10:35;;;;;;;13.07;8.30;;;3.60;99.90;;;;;;4962759;28;20650;-64
2021/03/09 10:13:00;;;;;;;11.43;8.53;;;3.70;99.90;;;;;;4952217;28;20721;-64
2021/03/09 10:15:48;;;;;;;11.23;9.03;;;3.80;99.90;;;;;;4958308;28;20705;-64
2021/03/09 10:18:39;;;;;;;10.20;8.50;;;3.80;99.90;;;;;;4962352;28;20270;-64
2021/03/09 10:21:10;;;;;;;10.23;8.53;;;3.90;99.90;;;;;;4963771;28;20690;-63
2021/03/09 10:23:52;;;;;;;12.00;8.27;;;3.90;99.90;;;;;;4964248;28;20985;-64
2021/03/09 10:26:25;;;;;;;11.80;8.27;;;4.00;99.90;;;;;;4963978;28;20720;-64
2021/03/09 10:28:59;;;;;;;13.10;8.00;;;4.00;99.90;;;;;;4948821;28;20710;-64
2021/03/09 10:31:25;;;;;;;10.37;7.70;;;4.10;99.90;;;;;;4931320;28;21004;-63
2021/03/09 10:34:03;;;;;;;9.60;7.50;;;4.10;99.90;;;;;;4944280;28;20647;-64
2021/03/09 10:36:47;;;;;;;10.43;7.77;;;4.10;99.90;;;;;;4922767;29;20251;-64
2021/03/09 10:39:13;;;;;;;10.10;8.10;;;4.10;99.90;;;;;;4938408;28;21328;-64
2021/03/09 10:41:38;;;;;;;10.07;7.67;;;4.20;99.90;;;;;;4939879;28;20745;-64
2021/03/09 10:44:04;;;;;;;9.53;7.23;;;4.20;99.90;;;;;;4929896;29;20199;-64
2021/03/09 10:46:34;;;;;;;8.00;6.90;;;4.20;99.90;;;;;;4948548;29;20203;-63
2021/03/09 10:48:59;;;;;;;9.70;8.00;;;4.30;99.90;;;;;;4932499;28;20674;-63
2021/03/09 10:51:25;;;;;;;10.93;8.20;;;4.40;99.90;;;;;;4944740;28;20662;-63
2021/03/09 10:53:50;;;;;;;10.80;8.03;;;4.30;99.90;;;;;;4946249;28;20204;-63
2021/03/09 10:56:16;;;;;;;9.43;7.40;;;4.30;99.90;;;;;;4942285;28;20210;-63
2021/03/09 10:58:41;;;;;;;8.87;7.47;;;4.40;99.90;;;;;;4946371;28;20192;-63
2021/03/09 11:01:07;;;;;;;8.23;7.10;;;4.40;99.90;;;;;;4966119;28;20226;-63
2021/03/09 11:03:33;;;;;;;11.27;8.13;;;4.40;99.90;;;;;;4989654;28;20190;-63
2021/03/09 11:05:58;;;;;;;11.60;7.70;;;4.40;99.90;;;;;;4985820;28;20305;-63
2021/03/09 11:08:26;;;;;;;10.33;7.07;;;4.40;99.90;;;;;;4975180;28;20209;-63
2021/03/09 11:10:53;;;;;;;9.47;7.43;;;4.50;99.90;;;;;;4988592;28;20226;-63
2021/03/09 11:13:19;;;;;;;8.13;6.90;;;4.50;99.90;;;;;;4994774;28;20623;-63
2021/03/09 11:15:45;;;;;;;9.33;8.03;;;4.60;99.90;;;;;;4989943;28;20675;-63
2021/03/09 11:18:11;;;;;;;7.70;6.27;;;4.60;99.90;;;;;;4991160;28;20688;-63
2021/03/09 11:20:38;;;;;;;9.67;7.30;;;4.70;99.90;;;;;;4987893;28;20649;-63
2021/03/09 11:23:04;;;;;;;10.97;8.87;;;4.70;99.90;;;;;;4987127;28;20624;-64
2021/03/09 11:25:30;;;;;;;10.63;8.67;;;4.70;99.90;;;;;;4988175;28;20621;-64
2021/03/09 11:27:55;;;;;;;9.40;6.70;;;4.70;99.90;;;;;;4988301;28;20692;-64
2021/03/09 11:30:22;;;;;;;9.27;7.60;;;4.80;99.90;;;;;;4986281;28;20269;-63
2021/03/09 11:32:47;;;;;;;11.10;7.50;;;4.80;99.90;;;;;;4984094;28;20277;-64
2021/03/09 11:35:13;;;;;;;9.67;7.33;;;4.80;99.90;;;;;;4988004;28;21034;-64
2021/03/09 11:37:39;;;;;;;10.23;7.17;;;4.80;99.90;;;;;;4984257;28;20191;-64
2021/03/09 11:40:06;;;;;;;10.63;7.63;;;4.90;99.90;;;;;;4983074;28;20236;-63
2021/03/09 11:42:32;;;;;;;10.73;7.47;;;4.90;99.90;;;;;;4983390;28;20194;-64
2021/03/09 11:44:58;;;;;;;10.07;7.27;;;5.00;99.90;;;;;;4986630;28;20616;-64
2021/03/09 11:47:26;;;;;;;8.57;7.37;;;5.00;99.90;;;;;;4985886;28;20205;-64
2021/03/09 11:49:51;;;;;;;9.30;7.50;;;5.00;99.90;;;;;;4981369;28;20679;-63
2021/03/09 11:52:17;;;;;;;9.20;7.70;;;5.00;99.90;;;;;;4991242;28;21072;-64
2021/03/09 11:54:42;;;;;;;10.67;7.60;;;5.10;99.90;;;;;;4983079;28;20216;-64
2021/03/09 11:57:08;;;;;;;10.10;7.60;;;5.10;99.90;;;;;;4989579;28;20194;-64
2021/03/09 11:59:34;;;;;;;9.77;7.47;;;5.00;99.90;;;;;;4987065;28;20224;-64
2021/03/09 12:01:59;;;;;;;11.00;6.90;;;5.00;99.90;;;;;;4989615;28;20225;-63
2021/03/09 12:04:25;;;;;;;8.17;6.97;;;5.10;99.90;;;;;;4984601;28;20260;-64
2021/03/09 12:06:51;;;;;;;9.43;7.13;;;5.10;99.90;;;;;;4983489;28;20733;-64
2021/03/09 12:09:16;;;;;;;9.03;6.90;;;5.10;99.90;;;;;;4969089;28;20241;-63
2021/03/09 12:11:42;;;;;;;8.00;6.70;;;5.10;99.90;;;;;;4985160;28;20232;-63
2021/03/09 12:14:07;;;;;;;8.80;7.03;;;5.10;99.90;;;;;;4983840;28;20194;-64
2021/03/09 12:16:33;;;;;;;11.27;8.13;;;5.20;99.90;;;;;;4970133;28;20592;-64
2021/03/09 12:18:59;;;;;;;10.50;7.87;;;5.10;99.90;;;;;;4987597;28;20186;-64
2021/03/09 12:21:24;;;;;;;10.60;8.00;;;5.10;99.90;;;;;;4981662;28;20222;-64
2021/03/09 12:23:50;;;;;;;10.30;7.10;;;5.20;99.90;;;;;;4983165;28;20182;-64
2021/03/09 12:26:16;;;;;;;11.90;8.10;;;5.20;99.90;;;;;;4970809;28;20658;-64
2021/03/09 12:28:45;;;;;;;10.40;7.30;;;5.30;99.90;;;;;;4971305;28;20190;-64
2021/03/09 12:31:10;;;;;;;9.00;7.70;;;5.30;99.90;;;;;;4987057;28;20724;-64
2021/03/09 12:33:38;;;;;;;8.93;7.17;;;5.30;99.90;;;;;;4985410;28;20617;-64
2021/03/09 12:36:04;;;;;;;8.93;7.10;;;5.30;99.90;;;;;;4984524;28;20244;-64
2021/03/09 12:38:30;;;;;;;11.57;8.70;;;5.30;99.90;;;;;;4985117;28;20617;-63
2021/03/09 12:40:56;;;;;;;10.93;8.10;;;5.30;99.90;;;;;;4984859;28;20633;-64
2021/03/09 12:43:22;;;;;;;11.03;8.20;;;5.30;99.90;;;;;;4966287;28;20801;-64
2021/03/09 12:45:48;;;;;;;10.10;7.70;;;5.30;99.90;;;;;;4968367;28;20618;-64
2021/03/09 12:48:14;;;;;;;10.40;7.53;;;5.30;99.90;;;;;;4986725;28;20605;-64
2021/03/09 12:50:39;;;;;;;11.47;7.50;;;5.20;99.90;;;;;;4987907;28;20732;-63
2021/03/09 12:53:05;;;;;;;9.93;7.77;;;5.20;99.90;;;;;;4969311;28;20557;-64
2021/03/09 12:55:30;;;;;;;9.57;8.40;;;5.10;99.90;;;;;;4985316;28;20689;-64
2021/03/09 12:57:56;;;;;;;8.90;6.93;;;5.10;99.90;;;;;;4988952;28;20558;-64
2021/03/09 13:00:22;;;;;;;10.50;8.30;;;5.10;99.90;;;;;;4990943;28;20221;-65
2021/03/09 13:02:48;;;;;;;11.30;8.50;;;5.10;99.90;;;;;;4977508;28;20729;-64
2021/03/09 13:05:16;;;;;;;9.63;7.07;;;5.20;99.90;;;;;;4985581;28;20200;-64
2021/03/09 13:07:41;;;;;;;8.60;6.63;;;5.20;99.90;;;;;;4978609;28;20277;-64
2021/03/09 13:10:09;;;;;;;10.23;7.87;;;5.20;99.90;;;;;;4987871;28;20760;-63
2021/03/09 13:12:35;;;;;;;8.20;6.70;;;5.20;99.90;;;;;;4987665;28;20613;-64
2021/03/09 13:15:01;;;;;;;8.77;7.10;;;5.20;99.90;;;;;;4975635;28;20650;-64
2021/03/09 13:17:26;;;;;;;10.00;7.70;;;5.20;99.90;;;;;;4983779;28;20628;-64
2021/03/09 13:19:52;;;;;;;9.87;7.33;;;5.10;99.90;;;;;;4981857;28;20216;-63
2021/03/09 13:22:18;;;;;;;10.17;8.00;;;5.10;99.90;;;;;;4981642;28;20166;-64
2021/03/09 13:24:44;;;;;;;11.47;7.47;;;5.20;99.90;;;;;;4987081;28;20210;-64
2021/03/09 13:27:09;;;;;;;11.73;7.67;;;5.20;99.90;;;;;;4970001;28;20556;-64
2021/03/09 13:29:35;;;;;;;9.90;7.43;;;5.20;99.90;;;;;;4989071;28;20640;-64
2021/03/09 13:32:01;;;;;;;9.73;6.37;;;5.20;99.90;;;;;;4985802;28;20226;-63